Detall de PIREP

Printer-friendly versionPDF version

[2009/10/16 19:50:00]
Flight IATA:CT2114
Pilot Number:041
Company ICAO:CAT
Aircraft Type:AT72/F
PAX:49
Departing Airport: LEVC
Destination Airport: LEVD
Alternate Airport:LESA
Online: VATSIM
Route:CENTA2A A33 PRADO A33 CJN A33 HORTA A33 MAGIN A33 INDEG A33 DISKO VLD
Flight Level:FL190
No Slew and time accel
No pause
Crash detect
Detect pilot in Cockpit between each 30 and 45 minutes
19:50 Zero fuel Weight: 40748 Lbs, Fuel Weight: 4451 Lbs
19:50 VATSIM:LEVC 161930Z 27003KT 9999 FEW025 SCT030 16/13 Q1022 NOSIG
19:50 VATSIM:LEVD 161930Z 04008KT CAVOK 07/M10 Q1023
19:50 VOICE CATALONIAN
19:52 Parking Brakes off
20:00 Take-off
20:00 Take off Weight: 45100 Lbs
20:00 Wind: 273º @ 002 Knots Heading: 294º
20:00 POS N39º 29´ 23´´ W000º 28´ 58´´
20:00 Gear Up: 134 Knots
20:00 Flaps:1 at 134 Knots
20:01 Flaps:0 at 178 Knots
20:15 Wind:022º@016 Knots Heading: 302º Ground Spe
ed: 278 Knots Altitude 12316 ft
20:20 TOC
20:20 Fuel Weight: 3570 Lb
20:30 Wind:009º@014 Knots Heading: 299º Ground Speed: 289 Knots Altitude 19225 ft
20:39 TOD
20:39 Fuel Weight: 2982 Lb
20:45 Wind:082º@009 Knots Heading: 334º Ground Speed: 283 Knots Altitude 13710 ft
21:00 Wind:060º@011 Knots Heading: 225º Ground Speed: 248 Knots Altitude 4685 ft
21:05 Flaps:1 at 188 Knots
21:06 Gear Down: 155 Knots
21:08 TouchDown:Rate -154 ft/min Speed: 111 Knots
21:08 VATSIM:LEVD 162100Z 05010KT CAVOK 07/M10 Q1023
21:08 Land
21:08 Wind:060º@011 Knots
21:08 Heading: 044º
21:08 Flight Duration: 01:08
21:08 Landing Weight: 43196 Lbs
21:08 POS N41º 42´ 15´´ W004º 51´ 18´´
21:11 Parking brakes on
21:11 Block to Block Duration: 01:19
21:11 Final Fuel: 2420 Lbls
21:11 Spent Fuel: 2030 Lbls
21:11 Flight Length: 294 NM
21:11 TOD Land Length: 116 NM

Exportar CSV

Powered by Drupal - Modified by Danger4k